createdAt,value
2019-02-04T00:00:37.785Z,4.58
2019-02-04T00:03:09.528Z,4.70
2019-02-04T00:05:40.200Z,5.10
2019-02-04T00:08:10.839Z,4.70
2019-02-04T00:10:41.493Z,4.97
2019-02-04T00:13:12.290Z,4.55
2019-02-04T00:15:43.003Z,4.90
2019-02-04T00:18:14.102Z,4.20
2019-02-04T00:20:44.761Z,4.10
2019-02-04T00:23:15.579Z,4.00
2019-02-04T00:25:47.200Z,5.15
2019-02-04T00:28:17.878Z,5.05
2019-02-04T00:30:48.556Z,5.42
2019-02-04T00:33:20.229Z,5.30
2019-02-04T00:35:50.965Z,4.70
2019-02-04T00:38:21.620Z,4.87
2019-02-04T00:40:53.274Z,4.85
2019-02-04T00:43:24.191Z,5.20
2019-02-04T00:45:54.934Z,5.50
2019-02-04T00:48:25.947Z,5.58
2019-02-04T00:50:57.179Z,5.17
2019-02-04T00:53:28.102Z,5.50
2019-02-04T00:55:58.947Z,6.10
2019-02-04T00:58:29.703Z,5.80
2019-02-04T01:01:00.371Z,5.80
2019-02-04T01:03:31.423Z,5.28
2019-02-04T01:06:02.064Z,5.97
2019-02-04T01:08:33.242Z,6.47
2019-02-04T01:11:04.199Z,5.80
2019-02-04T01:13:35.157Z,5.85
2019-02-04T01:16:06.251Z,5.97
2019-02-04T01:18:36.935Z,6.20
2019-02-04T01:21:07.861Z,5.80
2019-02-04T01:23:38.855Z,5.90
2019-02-04T01:26:11.210Z,6.42
2019-02-04T01:28:42.025Z,5.90
2019-02-04T01:31:12.665Z,6.37
2019-02-04T01:33:43.258Z,6.50
2019-02-04T01:36:13.919Z,5.80
2019-02-04T01:38:44.716Z,6.40
2019-02-04T01:41:15.506Z,6.28
2019-02-04T01:43:46.143Z,6.20
2019-02-04T01:46:17.043Z,6.37
2019-02-04T01:48:47.782Z,6.55
2019-02-04T01:51:18.390Z,6.00
2019-02-04T01:53:49.491Z,5.90
2019-02-04T01:56:20.413Z,5.67
2019-02-04T01:58:51.183Z,6.25
2019-02-04T02:01:21.958Z,6.33
2019-02-04T02:03:52.606Z,6.40
2019-02-04T02:06:23.796Z,5.70
2019-02-04T02:08:54.400Z,6.53
2019-02-04T02:11:25.128Z,6.12
2019-02-04T02:13:56.075Z,6.40
2019-02-04T02:16:26.814Z,6.95
2019-02-04T02:18:58.846Z,7.40
2019-02-04T02:21:29.615Z,7.00
2019-02-04T02:24:00.325Z,6.85
2019-02-04T02:26:31.066Z,7.00
2019-02-04T02:29:01.705Z,7.37
2019-02-04T02:31:32.797Z,6.97
2019-02-04T02:34:03.821Z,7.40
2019-02-04T02:36:34.482Z,7.95
2019-02-04T02:39:08.788Z,7.13
2019-02-04T02:41:39.624Z,8.28
2019-02-04T02:44:10.713Z,7.62
2019-02-04T02:46:41.609Z,8.60
2019-02-04T02:49:12.876Z,8.33
2019-02-04T02:51:43.640Z,7.80
2019-02-04T02:54:14.518Z,7.50
2019-02-04T02:56:45.308Z,8.13
2019-02-04T02:59:15.954Z,7.60
2019-02-04T03:01:46.660Z,7.60
2019-02-04T03:04:17.435Z,8.25
2019-02-04T03:06:48.091Z,8.00
2019-02-04T03:09:18.890Z,8.03
2019-02-04T03:11:49.690Z,7.50
2019-02-04T03:14:20.388Z,8.43
2019-02-04T03:16:51.179Z,7.80
2019-02-04T03:19:21.758Z,7.72
2019-02-04T03:21:52.323Z,8.40
2019-02-04T03:24:22.961Z,8.30
2019-02-04T03:26:53.582Z,8.60
2019-02-04T03:29:24.558Z,9.10
2019-02-04T03:31:56.611Z,8.13
2019-02-04T03:34:27.362Z,8.43
2019-02-04T03:36:58.335Z,8.53
2019-02-04T03:39:28.981Z,8.60
2019-02-04T03:41:59.682Z,8.33
2019-02-04T03:44:30.291Z,9.08
2019-02-04T03:47:01.838Z,7.92
2019-02-04T03:49:32.950Z,10.08
2019-02-04T03:52:19.053Z,9.80
2019-02-04T03:54:49.671Z,10.15
2019-02-04T03:57:20.411Z,11.25
2019-02-04T03:59:51.098Z,10.53
2019-02-04T04:02:22.047Z,11.38
2019-02-04T04:04:52.982Z,11.73
2019-02-04T04:07:24.012Z,12.20
2019-02-04T04:09:54.773Z,12.57
2019-02-04T04:12:25.468Z,13.00
2019-02-04T04:14:56.306Z,13.30
2019-02-04T04:17:27.023Z,13.60
2019-02-04T04:19:58.246Z,15.00
2019-02-04T04:22:29.004Z,14.10
2019-02-04T04:24:59.982Z,15.58
2019-02-04T04:27:30.752Z,15.13
2019-02-04T04:30:01.413Z,16.17
2019-02-04T04:32:32.398Z,16.45
2019-02-04T04:35:03.077Z,17.23
2019-02-04T04:37:34.289Z,17.95
2019-02-04T04:40:05.753Z,17.60
2019-02-04T04:42:36.690Z,18.82
2019-02-04T04:45:07.842Z,19.92
2019-02-04T07:17:42.532Z,24.97
2019-02-04T07:20:16.364Z,27.07
2019-02-04T07:22:47.373Z,25.80
2019-02-04T07:25:20.376Z,25.60
2019-02-04T07:27:51.664Z,25.30
2019-02-04T07:30:26.867Z,24.63
2019-02-04T07:32:57.834Z,23.30
2019-02-04T07:35:28.773Z,20.53
2019-02-04T07:37:59.620Z,21.47
2019-02-04T07:40:31.785Z,23.42
2019-02-04T07:43:02.611Z,22.62
2019-02-04T07:45:33.797Z,22.10
2019-02-04T07:48:04.518Z,19.73
2019-02-04T07:50:35.256Z,16.73
2019-02-04T08:00:35.391Z,14.60
2019-02-04T08:03:06.107Z,14.90
2019-02-04T08:05:36.776Z,15.13
2019-02-04T08:08:07.545Z,14.83
2019-02-04T08:10:38.255Z,15.77
2019-02-04T08:13:08.958Z,14.00
2019-02-04T08:15:39.629Z,15.97
2019-02-04T08:18:10.403Z,14.07
2019-02-04T08:23:10.593Z,13.55
2019-02-04T08:25:41.533Z,12.17
2019-02-04T08:28:12.225Z,11.87
2019-02-04T08:30:43.088Z,13.27
2019-02-04T08:33:14.582Z,11.83
2019-02-04T08:35:45.270Z,10.70
2019-02-04T08:38:15.919Z,12.80
2019-02-04T08:40:46.590Z,10.53
2019-02-04T08:43:17.277Z,10.90
2019-02-04T08:45:48.099Z,11.77
2019-02-04T08:48:18.791Z,10.70
2019-02-04T08:50:55.114Z,10.20
2019-02-04T08:53:26.210Z,11.53
2019-02-04T08:55:57.110Z,10.33
2019-02-04T08:58:27.953Z,11.73
2019-02-04T09:00:58.885Z,11.57
2019-02-04T09:03:29.675Z,11.70
2019-02-04T09:06:00.748Z,10.70
2019-02-04T09:08:31.726Z,12.20
2019-02-04T09:11:02.401Z,11.57
2019-02-04T09:13:33.048Z,12.70
2019-02-04T09:16:03.978Z,12.50
2019-02-04T09:18:44.451Z,13.58
2019-02-04T09:21:07.230Z,11.07
2019-02-04T09:23:37.880Z,11.90
2019-02-04T09:26:08.604Z,12.10
2019-02-04T09:31:08.825Z,11.00
2019-02-04T09:33:39.612Z,9.90
2019-02-04T09:36:10.695Z,10.67
2019-02-04T09:38:41.508Z,9.97
2019-02-04T09:41:12.223Z,9.33
2019-02-04T09:43:43.199Z,10.30
2019-02-04T09:46:13.943Z,9.27
2019-02-04T09:48:44.674Z,9.40
2019-02-04T09:51:15.334Z,9.20
2019-02-04T09:53:46.064Z,8.43
2019-02-04T09:56:16.731Z,8.53
2019-02-04T09:58:47.315Z,9.13
2019-02-04T10:01:17.995Z,9.70
2019-02-04T10:03:48.826Z,9.00
2019-02-04T10:06:19.663Z,8.80
2019-02-04T10:08:50.660Z,9.87
2019-02-04T10:11:21.328Z,8.30
2019-02-04T10:13:53.141Z,9.23
2019-02-04T10:16:23.968Z,8.70
2019-02-04T10:18:54.771Z,8.23
2019-02-04T10:21:25.740Z,8.63
2019-02-04T10:23:56.395Z,8.33
2019-02-04T10:26:27.239Z,9.07
2019-02-04T10:28:58.035Z,9.83
2019-02-04T10:31:28.917Z,9.07
2019-02-04T10:33:59.632Z,8.60
2019-02-04T10:36:30.633Z,9.03
2019-02-04T10:39:01.935Z,10.80
2019-02-04T10:41:32.883Z,8.37
2019-02-04T10:44:04.184Z,10.27
2019-02-04T10:46:34.976Z,10.10
2019-02-04T10:49:06.223Z,9.70
2019-02-04T10:51:37.614Z,8.83
2019-02-04T10:54:08.575Z,8.60
2019-02-04T11:09:09.940Z,7.77
2019-02-04T11:11:40.691Z,9.33
2019-02-04T11:14:11.950Z,9.40
2019-02-04T11:16:42.608Z,10.30
2019-02-04T11:19:13.693Z,10.10
2019-02-04T11:21:44.390Z,8.60
2019-02-04T11:24:15.365Z,9.23
2019-02-04T11:26:46.007Z,9.40
2019-02-04T11:29:18.754Z,8.90
2019-02-04T11:31:49.285Z,8.80
2019-02-04T11:34:20.059Z,8.77
2019-02-04T11:36:50.767Z,9.10
2019-02-04T11:39:21.819Z,9.50
2019-02-04T11:41:54.206Z,9.07
2019-02-04T11:44:25.229Z,9.67
2019-02-04T11:46:56.259Z,9.83
2019-02-04T11:49:27.033Z,10.47
2019-02-04T11:51:57.685Z,9.23
2019-02-04T11:54:28.279Z,9.60
2019-02-04T11:56:59.284Z,10.40
2019-02-04T11:59:29.945Z,9.20
2019-02-04T12:02:00.593Z,10.93
2019-02-04T12:04:31.263Z,9.00
2019-02-04T12:07:01.882Z,11.40
2019-02-04T12:09:32.465Z,9.50
2019-02-04T12:12:03.155Z,8.90
2019-02-04T12:14:33.726Z,10.30
2019-02-04T12:17:04.308Z,10.77
2019-02-04T12:19:35.066Z,9.50
2019-02-04T12:22:05.811Z,9.37
2019-02-04T12:24:36.526Z,9.90
2019-02-04T12:27:07.670Z,9.23
2019-02-04T12:29:38.450Z,8.57
2019-02-04T12:32:09.228Z,10.80
2019-02-04T12:34:39.825Z,10.07
2019-02-04T12:37:10.755Z,8.80
2019-02-04T12:39:41.689Z,8.10
2019-02-04T12:42:12.646Z,8.40
2019-02-04T12:44:43.232Z,8.90
2019-02-04T12:47:14.631Z,9.17
2019-02-04T12:49:45.595Z,10.00
2019-02-04T12:52:16.195Z,11.03
2019-02-04T12:54:47.067Z,8.30
2019-02-04T12:57:17.712Z,8.40
2019-02-04T12:59:48.475Z,8.03
2019-02-04T13:02:19.130Z,9.60
2019-02-04T13:04:50.000Z,8.93
2019-02-04T13:07:20.707Z,9.60
2019-02-04T13:09:51.274Z,8.53
2019-02-04T13:12:21.967Z,9.53
2019-02-04T13:14:52.572Z,9.10
2019-02-04T13:17:23.254Z,8.50
2019-02-04T13:19:53.875Z,9.10
2019-02-04T13:22:24.579Z,10.70
2019-02-04T13:24:55.214Z,10.50
2019-02-04T13:27:29.088Z,8.93
2019-02-04T13:29:59.730Z,10.10
2019-02-04T13:32:30.723Z,9.50
2019-02-04T13:35:01.351Z,10.10
2019-02-04T13:37:31.984Z,9.40
2019-02-04T13:40:02.625Z,9.47
2019-02-04T13:42:34.134Z,10.40
2019-02-04T13:45:07.966Z,9.43
2019-02-04T13:47:38.979Z,9.80
2019-02-04T13:50:09.895Z,10.03
2019-02-04T13:52:40.602Z,10.30
2019-02-04T13:55:15.091Z,9.20
2019-02-04T13:57:45.838Z,10.87
2019-02-04T14:00:17.450Z,9.70
2019-02-04T14:02:58.873Z,9.90
2019-02-04T14:05:20.859Z,10.03
2019-02-04T14:07:55.515Z,9.43
2019-02-04T14:10:29.201Z,9.60
2019-02-04T14:12:59.958Z,9.60
2019-02-04T14:15:30.731Z,10.50
2019-02-04T14:18:01.794Z,9.63
2019-02-04T14:20:32.554Z,9.50
2019-02-04T14:23:03.324Z,8.90
2019-02-04T14:25:34.203Z,9.50
2019-02-04T14:28:05.715Z,9.53
2019-02-04T14:30:38.089Z,9.63
2019-02-04T14:33:08.967Z,9.40
2019-02-04T14:35:40.071Z,9.73
2019-02-04T14:38:11.134Z,9.47
2019-02-04T14:40:41.817Z,9.10
2019-02-04T14:43:43.051Z,8.47
2019-02-04T14:47:01.621Z,8.67
2019-02-04T14:49:43.757Z,9.93
2019-02-04T14:52:51.634Z,9.73
2019-02-04T14:55:37.835Z,8.80
2019-02-04T14:58:23.219Z,8.57
2019-02-04T15:01:30.959Z,9.27
2019-02-04T15:04:23.965Z,8.20
2019-02-04T15:10:12.617Z,7.93
2019-02-04T15:13:02.744Z,7.30
2019-02-04T15:16:12.465Z,7.87
2019-02-04T15:19:32.953Z,8.13
2019-02-04T15:22:42.067Z,7.30
2019-02-04T15:25:46.590Z,7.33
2019-02-04T15:28:50.081Z,8.65
2019-02-04T15:31:48.404Z,6.70
2019-02-04T15:34:39.305Z,8.37
2019-02-04T15:37:57.295Z,6.90
2019-02-04T15:40:47.132Z,7.00
2019-02-04T15:43:46.271Z,7.23
2019-02-04T15:46:41.254Z,7.90
2019-02-04T15:49:51.891Z,7.30
2019-02-04T15:52:22.542Z,7.07
2019-02-04T15:54:53.397Z,7.50
2019-02-04T15:57:24.440Z,8.87
2019-02-04T15:59:55.111Z,8.37
2019-02-04T16:02:25.867Z,7.83
2019-02-04T16:04:56.569Z,8.95
2019-02-04T16:07:27.164Z,7.73
2019-02-04T16:09:58.083Z,8.07
2019-02-04T16:12:28.706Z,8.10
2019-02-04T16:14:59.360Z,8.43
2019-02-04T16:17:29.938Z,8.73
2019-02-04T16:20:00.598Z,8.30
2019-02-04T16:22:31.227Z,8.83
2019-02-04T16:25:01.795Z,7.37
2019-02-04T16:27:32.627Z,8.37
2019-02-04T16:30:03.350Z,8.07
2019-02-04T16:32:34.277Z,8.80
2019-02-04T16:35:06.170Z,7.80
2019-02-04T16:37:37.095Z,8.37
2019-02-04T16:40:10.228Z,8.63
2019-02-04T16:42:41.520Z,8.57
2019-02-04T16:45:12.419Z,7.53
2019-02-04T16:47:43.342Z,8.80
2019-02-04T16:50:25.242Z,7.60
2019-02-04T16:52:56.218Z,7.60
2019-02-04T16:55:26.757Z,7.30
2019-02-04T16:57:57.803Z,7.87
2019-02-04T17:00:30.820Z,8.00
2019-02-04T17:08:00.980Z,6.90
2019-02-04T17:10:31.781Z,6.80
2019-02-04T17:13:03.132Z,6.23
2019-02-04T17:15:34.358Z,6.30
2019-02-04T17:20:34.783Z,7.80
2019-02-04T17:23:05.579Z,6.70
2019-02-04T17:25:36.207Z,7.87
2019-02-04T17:28:07.978Z,7.43
2019-02-04T17:30:41.995Z,7.30
2019-02-04T17:33:12.912Z,6.73
2019-02-04T17:35:44.031Z,6.57
2019-02-04T17:38:14.932Z,6.57
2019-02-04T17:40:47.148Z,6.90
2019-02-04T17:43:18.166Z,6.50
2019-02-04T17:45:48.816Z,7.50
2019-02-04T17:48:22.602Z,7.27
2019-02-04T17:50:55.465Z,6.43
2019-02-04T18:09:29.632Z,7.85
2019-02-04T18:16:00.602Z,5.73
2019-02-04T18:16:09.728Z,7.07
2019-02-04T18:18:37.403Z,6.57
2019-02-04T18:24:06.333Z,6.23
2019-02-04T18:27:24.162Z,6.37
2019-02-04T18:30:05.621Z,5.93
2019-02-04T18:32:48.939Z,6.57
2019-02-04T18:35:24.313Z,6.80
2019-02-04T18:38:40.531Z,7.53
2019-02-04T19:06:54.212Z,7.50
2019-02-04T19:07:05.313Z,7.17
2019-02-04T19:10:10.075Z,6.90
2019-02-04T19:14:33.761Z,7.73
2019-02-04T19:16:30.426Z,7.13
2019-02-04T19:19:51.122Z,7.60
2019-02-04T19:22:48.874Z,8.67
2019-02-04T19:26:16.335Z,7.97
2019-02-04T19:49:57.781Z,7.53
2019-02-04T19:52:34.296Z,11.20
2019-02-04T19:55:30.810Z,8.70
2019-02-04T19:58:07.483Z,7.90
2019-02-04T20:00:45.484Z,7.47
2019-02-04T20:04:13.085Z,7.93
2019-02-04T20:06:50.784Z,7.50
2019-02-04T20:09:33.747Z,7.73
2019-02-04T20:12:14.410Z,8.50
2019-02-04T20:15:17.026Z,7.07
2019-02-04T20:18:47.459Z,7.50
2019-02-04T20:25:05.730Z,7.60
2019-02-04T20:27:41.724Z,6.77
2019-02-04T20:30:16.339Z,6.90
2019-02-04T20:32:55.817Z,7.60
2019-02-04T20:35:42.704Z,7.53
2019-02-04T20:38:13.291Z,6.83
2019-02-04T20:40:47.546Z,6.53
2019-02-04T20:43:21.552Z,6.10
2019-02-04T20:50:04.102Z,6.33
2019-02-04T21:07:03.665Z,6.97
2019-02-04T21:18:45.497Z,6.43
2019-02-04T21:25:26.008Z,5.93
2019-02-04T21:31:35.948Z,6.47
2019-02-04T21:49:02.873Z,6.80
2019-02-04T21:52:55.069Z,6.47
2019-02-04T21:59:54.348Z,6.83
2019-02-04T22:03:11.495Z,7.20
2019-02-04T22:07:40.443Z,6.70
2019-02-04T22:23:10.452Z,6.50
2019-02-04T22:26:50.615Z,6.83
2019-02-04T22:46:26.484Z,6.90
2019-02-04T22:54:44.117Z,6.30
2019-02-04T23:02:07.081Z,6.23
2019-02-04T23:04:39.205Z,6.30
2019-02-04T23:07:14.655Z,6.47
2019-02-04T23:09:48.152Z,7.20
2019-02-04T23:12:21.458Z,7.10
2019-02-04T23:14:57.036Z,6.20
2019-02-04T23:17:30.056Z,6.93
2019-02-04T23:20:03.232Z,6.90
2019-02-04T23:22:34.303Z,7.50
2019-02-04T23:25:05.662Z,6.40
2019-02-04T23:27:36.634Z,6.33
2019-02-04T23:32:38.170Z,6.27
2019-02-04T23:35:09.983Z,6.27
2019-02-04T23:37:41.550Z,6.77
2019-02-04T23:40:12.518Z,6.27
2019-02-04T23:42:43.226Z,6.80
2019-02-04T23:45:14.657Z,6.60
2019-02-04T23:47:46.789Z,6.50
2019-02-04T23:50:18.274Z,5.80
2019-02-04T23:52:49.074Z,5.60
2019-02-04T23:55:20.209Z,7.27
2019-02-04T23:57:50.789Z,6.47
